createdAt,value
2019-05-19T00:00:34.902Z,14.43
2019-05-19T00:03:12.081Z,14.63
2019-05-19T00:05:49.219Z,14.37
2019-05-19T00:08:26.387Z,16.73
2019-05-19T00:11:06.923Z,19.40
2019-05-19T00:13:44.083Z,15.67
2019-05-19T00:16:21.221Z,15.33
2019-05-19T00:18:58.342Z,16.40
2019-05-19T00:21:35.852Z,15.23
2019-05-19T00:24:19.395Z,16.93
2019-05-19T00:26:56.513Z,17.30
2019-05-19T00:29:33.553Z,14.80
2019-05-19T00:32:10.854Z,15.73
2019-05-19T00:34:48.128Z,14.47
2019-05-19T00:37:25.276Z,13.60
2019-05-19T00:40:02.436Z,16.20
2019-05-19T00:42:39.647Z,16.97
2019-05-19T00:45:16.769Z,15.37
2019-05-19T00:47:53.879Z,14.73
2019-05-19T00:50:31.019Z,15.20
2019-05-19T00:53:08.159Z,14.97
2019-05-19T00:55:45.277Z,14.27
2019-05-19T00:58:22.409Z,17.93
2019-05-19T01:00:59.645Z,17.07
2019-05-19T01:03:36.767Z,16.90
2019-05-19T01:06:15.538Z,17.00
2019-05-19T01:08:52.642Z,15.13
2019-05-19T01:11:30.169Z,15.60
2019-05-19T01:14:07.335Z,15.83
2019-05-19T01:16:44.439Z,17.17
2019-05-19T01:19:21.622Z,19.30
2019-05-19T01:21:58.835Z,18.77
2019-05-19T01:24:35.976Z,18.40
2019-05-19T01:27:13.672Z,18.13
2019-05-19T01:29:50.882Z,18.17
2019-05-19T01:32:27.990Z,20.20
2019-05-19T01:35:05.296Z,19.83
2019-05-19T01:37:42.506Z,16.77
2019-05-19T01:40:19.623Z,15.87
2019-05-19T01:42:56.761Z,16.00
2019-05-19T01:45:33.901Z,15.23
2019-05-19T01:48:11.019Z,16.20
2019-05-19T01:50:48.134Z,16.37
2019-05-19T01:53:25.199Z,16.87
2019-05-19T01:56:02.247Z,16.83
2019-05-19T01:58:40.667Z,18.83
2019-05-19T02:01:17.990Z,20.10
2019-05-19T02:03:55.271Z,19.13
2019-05-19T02:06:32.450Z,19.60
2019-05-19T02:09:09.493Z,18.87
2019-05-19T02:11:46.607Z,17.60
2019-05-19T02:14:23.718Z,19.77
2019-05-19T02:17:00.884Z,19.43
2019-05-19T02:19:38.010Z,19.23
2019-05-19T02:22:15.121Z,20.13
2019-05-19T02:24:52.272Z,20.20
2019-05-19T02:27:29.396Z,21.50
2019-05-19T02:30:09.317Z,21.00
2019-05-19T02:32:46.459Z,20.47
2019-05-19T02:35:23.596Z,21.47
2019-05-19T02:38:00.708Z,21.03
2019-05-19T02:40:39.326Z,20.53
2019-05-19T02:43:16.426Z,19.90
2019-05-19T02:45:56.870Z,18.80
2019-05-19T02:48:33.973Z,18.07
2019-05-19T02:51:11.122Z,18.77
2019-05-19T02:53:48.207Z,18.57
2019-05-19T02:56:25.726Z,17.73
2019-05-19T02:59:02.836Z,17.37
2019-05-19T03:01:58.215Z,18.30
2019-05-19T03:04:35.388Z,17.53
2019-05-19T03:07:12.604Z,17.77
2019-05-19T03:09:49.653Z,18.03
2019-05-19T03:12:26.802Z,17.57
2019-05-19T03:15:04.627Z,18.23
2019-05-19T03:17:41.780Z,18.10
2019-05-19T03:20:18.869Z,18.30
2019-05-19T03:22:55.999Z,17.60
2019-05-19T03:25:33.158Z,17.83
2019-05-19T03:28:10.311Z,16.77
2019-05-19T03:31:04.456Z,20.00
2019-05-19T03:33:45.940Z,21.27
2019-05-19T03:36:23.115Z,23.03
2019-05-19T03:39:00.223Z,19.10
2019-05-19T03:41:37.371Z,17.87
2019-05-19T03:44:14.575Z,19.70
2019-05-19T03:46:51.665Z,19.77
2019-05-19T03:49:28.815Z,19.17
2019-05-19T03:52:05.941Z,18.97
2019-05-19T03:54:43.044Z,19.77
2019-05-19T03:57:23.492Z,20.43
2019-05-19T04:00:00.654Z,18.27
2019-05-19T04:02:37.895Z,18.30
2019-05-19T04:05:14.983Z,18.60
2019-05-19T04:07:52.110Z,20.33
2019-05-19T04:10:29.202Z,19.33
2019-05-19T04:13:06.359Z,22.77
2019-05-19T04:15:43.499Z,19.10
2019-05-19T04:18:20.674Z,17.63
2019-05-19T04:20:57.839Z,16.80
2019-05-19T04:23:34.969Z,18.37
2019-05-19T04:26:12.119Z,18.87
2019-05-19T04:28:49.255Z,19.83
2019-05-19T04:31:26.382Z,22.83
2019-05-19T04:34:03.586Z,22.00
2019-05-19T04:36:40.689Z,20.57
2019-05-19T04:39:17.814Z,20.23
2019-05-19T04:41:54.914Z,17.87
2019-05-19T04:44:32.069Z,18.43
2019-05-19T04:47:09.140Z,19.33
2019-05-19T04:49:46.199Z,20.53
2019-05-19T04:52:25.039Z,20.03
2019-05-19T04:55:02.242Z,19.90
2019-05-19T05:00:25.814Z,20.50
2019-05-19T05:03:02.986Z,18.80
2019-05-19T05:05:40.198Z,19.33
2019-05-19T05:08:28.724Z,19.23
2019-05-19T05:10:56.139Z,18.93
2019-05-19T05:13:33.284Z,18.43
2019-05-19T05:16:10.435Z,18.17
2019-05-19T05:18:48.061Z,19.50
2019-05-19T05:21:25.171Z,21.10
2019-05-19T05:24:02.313Z,20.37
2019-05-19T05:26:39.469Z,20.10
2019-05-19T05:29:16.587Z,18.13
2019-05-19T05:31:53.733Z,19.03
2019-05-19T05:34:30.860Z,17.67
2019-05-19T05:37:08.006Z,21.20
2019-05-19T05:39:45.041Z,16.87
2019-05-19T05:42:22.113Z,17.40
2019-05-19T05:44:59.157Z,15.33
2019-05-19T05:47:36.281Z,16.97
2019-05-19T05:50:13.453Z,16.87
2019-05-19T05:52:50.587Z,18.20
2019-05-19T05:55:27.929Z,18.10
2019-05-19T05:58:05.237Z,16.33
2019-05-19T06:00:44.966Z,15.27
2019-05-19T06:03:23.421Z,13.50
2019-05-19T06:06:00.540Z,13.77
2019-05-19T06:08:38.202Z,15.10
2019-05-19T06:11:15.347Z,13.93
2019-05-19T06:13:52.499Z,13.40
2019-05-19T06:16:29.590Z,12.97
2019-05-19T06:19:08.452Z,13.37
2019-05-19T06:21:45.601Z,14.70
2019-05-19T06:24:22.764Z,12.07
2019-05-19T06:26:59.870Z,10.60
2019-05-19T06:29:37.001Z,9.50
2019-05-19T06:32:15.806Z,10.50
2019-05-19T06:34:52.948Z,12.30
2019-05-19T06:37:30.098Z,13.97
2019-05-19T06:40:07.352Z,13.87
2019-05-19T06:42:44.575Z,12.33
2019-05-19T06:45:24.076Z,12.07
2019-05-19T06:48:01.212Z,12.17
2019-05-19T06:50:40.728Z,11.17
2019-05-19T06:53:17.201Z,10.70
2019-05-19T06:55:56.791Z,9.77
2019-05-19T06:58:34.528Z,9.10
2019-05-19T07:01:11.626Z,10.00
2019-05-19T07:03:48.773Z,8.53
2019-05-19T07:06:25.983Z,9.00
2019-05-19T07:09:05.422Z,8.50
2019-05-19T07:11:43.128Z,8.10
2019-05-19T07:14:20.862Z,8.33
2019-05-19T07:16:58.709Z,7.65
2019-05-19T07:19:36.561Z,8.25
2019-05-19T07:22:18.364Z,8.10
2019-05-19T07:24:56.273Z,7.00
2019-05-19T07:27:33.711Z,7.53
2019-05-19T07:30:23.953Z,7.80
2019-05-19T07:33:01.439Z,7.47
2019-05-19T07:35:40.238Z,7.43
2019-05-19T07:38:17.622Z,7.30
2019-05-19T07:40:55.053Z,6.80
2019-05-19T07:43:32.419Z,6.67
2019-05-19T07:46:09.844Z,7.13
2019-05-19T07:48:47.209Z,6.80
2019-05-19T07:51:24.670Z,6.40
2019-05-19T07:54:04.316Z,6.43
2019-05-19T07:56:41.778Z,6.20
2019-05-19T07:59:19.183Z,6.70
2019-05-19T08:01:56.610Z,6.80
2019-05-19T08:04:34.037Z,6.87
2019-05-19T08:07:11.467Z,7.10
2019-05-19T08:09:48.904Z,6.77
2019-05-19T08:12:30.451Z,6.70
2019-05-19T08:15:08.278Z,6.90
2019-05-19T08:17:48.436Z,7.73
2019-05-19T08:20:26.015Z,7.10
2019-05-19T08:23:03.641Z,7.20
2019-05-19T08:25:45.363Z,7.80
2019-05-19T08:28:26.008Z,7.57
2019-05-19T08:31:03.630Z,7.67
2019-05-19T08:33:41.174Z,7.87
2019-05-19T08:36:22.799Z,7.90
2019-05-19T08:39:00.227Z,7.93
2019-05-19T08:41:37.702Z,7.43
2019-05-19T08:44:15.145Z,7.50
2019-05-19T08:46:54.786Z,7.90
2019-05-19T08:49:32.295Z,8.30
2019-05-19T08:52:09.777Z,7.73
2019-05-19T08:54:47.214Z,7.87
2019-05-19T08:57:24.579Z,7.07
2019-05-19T09:00:02.120Z,7.47
2019-05-19T09:02:39.567Z,8.60
2019-05-19T09:05:17.018Z,8.70
2019-05-19T09:07:54.547Z,8.37
2019-05-19T09:10:31.984Z,7.93
2019-05-19T09:13:09.442Z,7.97
2019-05-19T09:15:46.891Z,8.17
2019-05-19T09:18:24.258Z,8.73
2019-05-19T09:21:01.770Z,7.57
2019-05-19T09:23:39.687Z,8.50
2019-05-19T09:26:17.076Z,8.20
2019-05-19T09:28:54.445Z,7.60
2019-05-19T09:31:31.843Z,7.23
2019-05-19T09:34:09.260Z,7.90
2019-05-19T09:36:46.714Z,7.43
2019-05-19T09:39:24.233Z,7.60
2019-05-19T09:42:01.931Z,9.43
2019-05-19T09:44:39.747Z,8.97
2019-05-19T09:47:17.209Z,7.93
2019-05-19T09:49:54.871Z,7.90
2019-05-19T09:52:32.504Z,7.60
2019-05-19T09:55:10.347Z,8.98
2019-05-19T09:57:48.051Z,7.97
2019-05-19T10:00:25.625Z,8.65
2019-05-19T10:03:03.437Z,9.20
2019-05-19T10:05:41.138Z,8.23
2019-05-19T10:08:21.702Z,7.60
2019-05-19T10:11:18.008Z,7.75
2019-05-19T10:13:55.892Z,7.05
2019-05-19T10:16:33.511Z,6.45
2019-05-19T10:19:12.716Z,7.28
2019-05-19T10:21:50.890Z,6.78
2019-05-19T10:24:28.292Z,7.47
2019-05-19T10:27:06.009Z,6.72
2019-05-19T10:29:43.785Z,8.03
2019-05-19T10:32:21.454Z,7.83
2019-05-19T10:34:59.428Z,7.05
2019-05-19T10:37:37.244Z,8.40
2019-05-19T10:40:14.898Z,8.18
2019-05-19T10:42:52.577Z,6.70
2019-05-19T10:45:30.371Z,7.72
2019-05-19T10:48:08.046Z,7.35
2019-05-19T10:50:45.718Z,6.80
2019-05-19T10:53:23.402Z,7.37
2019-05-19T10:56:01.106Z,7.55
2019-05-19T10:58:38.559Z,7.40
2019-05-19T11:01:16.418Z,8.10
2019-05-19T11:03:54.495Z,8.10
2019-05-19T11:06:32.368Z,6.90
2019-05-19T11:09:10.141Z,7.15
2019-05-19T11:11:47.882Z,6.83
2019-05-19T11:14:25.659Z,7.70
2019-05-19T11:17:03.745Z,7.63
2019-05-19T11:19:41.601Z,6.62
2019-05-19T11:22:19.419Z,5.78
2019-05-19T11:24:57.474Z,5.90
2019-05-19T11:27:35.179Z,5.55
2019-05-19T11:30:12.788Z,6.53
2019-05-19T11:32:50.426Z,5.72
2019-05-19T11:35:28.287Z,6.15
2019-05-19T11:38:06.193Z,6.10
2019-05-19T11:40:43.911Z,5.47
2019-05-19T11:43:21.636Z,5.95
2019-05-19T11:45:59.373Z,5.20
2019-05-19T11:48:37.074Z,4.95
2019-05-19T11:51:14.746Z,4.60
2019-05-19T11:53:52.435Z,5.30
2019-05-19T11:56:30.130Z,5.40
2019-05-19T11:59:07.811Z,5.47
2019-05-19T12:01:45.514Z,5.22
2019-05-19T12:04:23.236Z,4.90
2019-05-19T12:07:01.132Z,5.85
2019-05-19T12:09:38.870Z,5.65
2019-05-19T12:12:16.584Z,5.20
2019-05-19T12:14:54.239Z,5.12
2019-05-19T12:17:31.942Z,5.12
2019-05-19T12:20:09.658Z,5.70
2019-05-19T12:22:47.427Z,5.58
2019-05-19T12:25:24.846Z,5.00
2019-05-19T12:28:02.732Z,4.62
2019-05-19T12:30:40.677Z,4.80
2019-05-19T12:33:18.444Z,4.60
2019-05-19T12:35:56.351Z,5.28
2019-05-19T12:38:34.026Z,4.95
2019-05-19T12:41:11.882Z,4.75
2019-05-19T12:43:49.531Z,4.87
2019-05-19T12:46:27.250Z,4.37
2019-05-19T12:49:04.988Z,4.28
2019-05-19T12:51:42.624Z,4.87
2019-05-19T12:54:20.341Z,4.83
2019-05-19T12:56:58.084Z,4.70
2019-05-19T12:59:38.137Z,5.25
2019-05-19T13:02:15.492Z,7.60
2019-05-19T13:05:04.821Z,8.58
2019-05-19T13:07:36.660Z,5.07
2019-05-19T13:10:14.638Z,5.35
2019-05-19T13:12:52.345Z,4.75
2019-05-19T13:15:30.453Z,4.85
2019-05-19T13:18:08.189Z,4.65
2019-05-19T13:20:45.835Z,4.17
2019-05-19T13:23:23.267Z,4.20
2019-05-19T13:26:00.681Z,4.07
2019-05-19T13:28:39.758Z,4.00
2019-05-19T13:31:17.092Z,3.80
2019-05-19T13:33:54.532Z,7.50
2019-05-19T13:36:31.881Z,7.30
2019-05-19T13:39:09.668Z,7.50
2019-05-19T13:41:47.275Z,8.35
2019-05-19T13:44:25.362Z,7.47
2019-05-19T13:47:03.066Z,6.25
2019-05-19T13:49:40.796Z,7.20
2019-05-19T13:52:21.450Z,6.50
2019-05-19T13:54:59.132Z,6.33
2019-05-19T13:57:36.839Z,6.33
2019-05-19T14:00:16.157Z,6.00
2019-05-19T14:02:53.866Z,6.28
2019-05-19T14:05:31.570Z,6.17
2019-05-19T14:08:09.260Z,6.30
2019-05-19T14:10:46.966Z,6.55
2019-05-19T14:13:25.279Z,6.08
2019-05-19T14:16:04.245Z,6.40
2019-05-19T14:18:42.881Z,6.53
2019-05-19T14:21:21.600Z,6.37
2019-05-19T14:24:04.281Z,6.53
2019-05-19T14:26:44.963Z,6.12
2019-05-19T14:29:27.913Z,6.37
2019-05-19T14:32:07.498Z,6.97
2019-05-19T14:34:47.324Z,6.83
2019-05-19T14:37:27.041Z,7.00
2019-05-19T14:40:06.542Z,6.67
2019-05-19T14:42:49.006Z,7.50
2019-05-19T14:45:26.659Z,7.08
2019-05-19T14:48:11.921Z,7.53
2019-05-19T14:50:49.549Z,7.75
2019-05-19T14:53:27.237Z,7.37
2019-05-19T14:56:04.933Z,7.22
2019-05-19T14:58:42.680Z,7.35
2019-05-19T15:01:20.336Z,6.42
2019-05-19T15:03:58.072Z,6.67
2019-05-19T15:06:35.706Z,7.47
2019-05-19T15:09:13.371Z,9.53
2019-05-19T15:11:51.123Z,7.65
2019-05-19T15:14:28.844Z,7.17
2019-05-19T15:17:06.501Z,7.55
2019-05-19T15:19:44.529Z,6.92
2019-05-19T15:22:24.640Z,6.92
2019-05-19T15:25:02.435Z,6.78
2019-05-19T15:27:43.039Z,6.60
2019-05-19T15:30:22.902Z,6.67
2019-05-19T15:33:01.303Z,5.90
2019-05-19T15:35:40.709Z,5.60
2019-05-19T15:38:26.637Z,5.80
2019-05-19T15:41:04.882Z,5.95
2019-05-19T15:43:42.572Z,5.78
2019-05-19T15:46:20.310Z,5.55
2019-05-19T15:48:58.117Z,5.22
2019-05-19T15:51:37.784Z,5.30
2019-05-19T15:54:15.095Z,5.50
2019-05-19T15:56:52.817Z,6.20
2019-05-19T15:59:30.463Z,6.00
2019-05-19T16:02:08.192Z,6.10
2019-05-19T16:04:45.791Z,6.55
2019-05-19T16:07:23.547Z,6.28
2019-05-19T16:10:01.499Z,6.17
2019-05-19T16:12:42.096Z,6.37
2019-05-19T16:15:26.648Z,6.47
2019-05-19T16:18:05.694Z,6.30
2019-05-19T16:20:43.323Z,6.55
2019-05-19T16:23:22.315Z,6.58
2019-05-19T16:26:00.270Z,6.00
2019-05-19T16:28:38.416Z,6.33
2019-05-19T16:31:16.083Z,6.10
2019-05-19T16:33:53.831Z,6.65
2019-05-19T16:36:31.534Z,6.25
2019-05-19T16:39:15.385Z,6.50
2019-05-19T16:41:53.092Z,6.33
2019-05-19T16:44:30.873Z,5.78
2019-05-19T16:47:08.531Z,5.25
2019-05-19T16:49:46.404Z,5.00
2019-05-19T16:52:24.220Z,5.12
2019-05-19T16:55:22.086Z,5.30
2019-05-19T16:57:59.693Z,4.83
2019-05-19T17:00:38.828Z,5.28
2019-05-19T17:03:22.899Z,5.00
2019-05-19T17:06:00.618Z,4.70
2019-05-19T17:08:38.308Z,4.83
2019-05-19T17:11:25.637Z,4.58
2019-05-19T17:14:05.213Z,4.10
2019-05-19T17:16:43.776Z,4.25
2019-05-19T17:19:24.303Z,3.70
2019-05-19T17:22:05.858Z,3.83
2019-05-19T17:24:49.256Z,3.65
2019-05-19T17:27:36.321Z,3.80
2019-05-19T17:30:23.704Z,3.08
2019-05-19T17:33:04.618Z,3.55
2019-05-19T17:35:42.278Z,3.83
2019-05-19T17:38:20.187Z,3.77
2019-05-19T17:40:57.939Z,3.75
2019-05-19T17:43:40.374Z,3.30
2019-05-19T17:46:29.404Z,3.58
2019-05-19T17:49:12.726Z,3.67
2019-05-19T17:51:50.431Z,3.90
2019-05-19T17:54:28.259Z,4.00
2019-05-19T17:57:11.582Z,4.05
2019-05-19T18:00:00.696Z,3.85
2019-05-19T18:02:40.551Z,4.15
2019-05-19T18:05:18.284Z,3.62
2019-05-19T18:07:56.135Z,4.20
2019-05-19T18:10:49.174Z,4.00
2019-05-19T18:13:46.370Z,3.85
2019-05-19T18:16:24.094Z,3.92
2019-05-19T18:19:01.729Z,4.08
2019-05-19T18:21:46.680Z,3.80
2019-05-19T18:24:24.408Z,3.95
2019-05-19T18:27:02.137Z,4.40
2019-05-19T18:29:49.352Z,4.12
2019-05-19T18:32:27.110Z,4.42
2019-05-19T18:35:06.608Z,4.50
2019-05-19T18:37:44.235Z,5.65
2019-05-19T18:40:22.318Z,7.10
2019-05-19T18:43:00.341Z,7.45
2019-05-19T18:45:46.070Z,5.37
2019-05-19T18:48:28.773Z,5.33
2019-05-19T18:51:06.165Z,4.80
2019-05-19T18:53:44.020Z,4.85
2019-05-19T18:56:21.852Z,4.65
2019-05-19T18:58:59.687Z,5.10
2019-05-19T19:01:45.883Z,5.10
2019-05-19T19:04:23.052Z,5.28
2019-05-19T19:07:00.837Z,5.45
2019-05-19T19:09:38.019Z,5.90
2019-05-19T19:12:21.085Z,5.60
2019-05-19T19:14:58.306Z,6.87
2019-05-19T19:17:37.378Z,6.95
2019-05-19T19:20:16.310Z,6.78
2019-05-19T19:22:54.778Z,6.83
2019-05-19T19:25:31.899Z,6.62
2019-05-19T19:28:09.402Z,6.53
2019-05-19T19:30:46.511Z,7.28
2019-05-19T19:33:24.662Z,7.58
2019-05-19T19:36:01.875Z,7.90
2019-05-19T19:38:39.034Z,7.67
2019-05-19T19:41:16.546Z,7.00
2019-05-19T19:43:53.723Z,6.12
2019-05-19T19:46:30.887Z,5.72
2019-05-19T19:49:08.234Z,5.95
2019-05-19T19:51:45.979Z,6.40
2019-05-19T19:54:25.428Z,6.60
2019-05-19T19:57:02.908Z,6.27
2019-05-19T19:59:40.723Z,6.40
2019-05-19T20:02:17.975Z,6.97
2019-05-19T20:04:55.823Z,6.60
2019-05-19T20:07:32.923Z,5.83
2019-05-19T20:10:17.633Z,5.73
2019-05-19T20:12:56.474Z,6.30
2019-05-19T20:15:35.571Z,6.67
2019-05-19T20:18:14.015Z,5.80
2019-05-19T20:20:51.312Z,6.70
2019-05-19T20:23:29.273Z,6.80
2019-05-19T20:26:06.560Z,7.23
2019-05-19T20:28:45.299Z,6.63
2019-05-19T20:31:22.848Z,6.77
2019-05-19T20:33:59.956Z,7.40
2019-05-19T20:36:37.145Z,7.70
2019-05-19T20:39:14.322Z,7.40
2019-05-19T20:41:51.456Z,7.27
2019-05-19T20:44:29.609Z,7.07
2019-05-19T20:47:06.774Z,7.00
2019-05-19T20:49:43.902Z,6.87
2019-05-19T20:52:21.044Z,7.00
2019-05-19T20:54:58.169Z,7.47
2019-05-19T20:57:35.286Z,7.10
2019-05-19T21:00:12.472Z,7.37
2019-05-19T21:02:49.712Z,8.57
2019-05-19T21:05:27.054Z,7.47
2019-05-19T21:08:04.137Z,7.50
2019-05-19T21:10:42.592Z,7.17
2019-05-19T21:13:19.609Z,6.90
2019-05-19T21:15:56.750Z,7.40
2019-05-19T21:18:33.832Z,7.87
2019-05-19T21:21:11.010Z,8.50
2019-05-19T21:23:50.151Z,7.80
2019-05-19T21:26:27.345Z,8.60
2019-05-19T21:29:04.448Z,10.00
2019-05-19T21:31:41.610Z,9.40
2019-05-19T21:34:18.785Z,9.23
2019-05-19T21:36:56.098Z,9.20
2019-05-19T21:39:33.644Z,8.70
2019-05-19T21:42:10.751Z,9.07
2019-05-19T21:44:47.910Z,8.97
2019-05-19T21:47:25.112Z,9.70
2019-05-19T21:50:03.380Z,9.23
2019-05-19T21:52:41.970Z,9.03
2019-05-19T21:55:19.571Z,9.10
2019-05-19T21:58:02.645Z,8.87
2019-05-19T22:00:41.946Z,10.10
2019-05-19T22:03:22.731Z,9.30
2019-05-19T22:05:59.880Z,11.43
2019-05-19T22:08:43.132Z,10.70
2019-05-19T22:11:20.286Z,11.40
2019-05-19T22:14:00.424Z,11.43
2019-05-19T22:16:37.554Z,11.13
2019-05-19T22:19:15.953Z,10.90
2019-05-19T22:21:53.175Z,10.93
2019-05-19T22:24:30.325Z,10.27
2019-05-19T22:27:07.489Z,10.70
2019-05-19T22:29:44.559Z,12.37
2019-05-19T22:32:22.385Z,11.23
2019-05-19T22:34:59.554Z,12.37
2019-05-19T22:37:36.766Z,11.63
2019-05-19T22:40:13.901Z,11.07
2019-05-19T22:42:51.218Z,12.40
2019-05-19T22:45:28.513Z,12.73
2019-05-19T22:48:05.928Z,13.00
2019-05-19T22:50:43.187Z,12.47
2019-05-19T22:53:20.315Z,12.60
2019-05-19T22:55:57.503Z,12.67
2019-05-19T22:58:41.268Z,12.17
2019-05-19T23:01:16.699Z,11.67
2019-05-19T23:03:53.881Z,11.70
2019-05-19T23:06:30.988Z,12.63
2019-05-19T23:09:08.137Z,12.37
2019-05-19T23:11:45.223Z,12.50
2019-05-19T23:14:22.466Z,12.23
2019-05-19T23:16:59.569Z,12.83
2019-05-19T23:19:36.777Z,12.67
2019-05-19T23:22:13.991Z,14.23
2019-05-19T23:24:51.157Z,14.60
2019-05-19T23:27:28.264Z,13.83
2019-05-19T23:30:07.578Z,14.00
2019-05-19T23:32:44.689Z,14.80
2019-05-19T23:35:21.959Z,16.13
2019-05-19T23:37:59.630Z,15.57
2019-05-19T23:40:36.795Z,15.30
2019-05-19T23:43:13.924Z,15.37
2019-05-19T23:45:51.125Z,14.13
2019-05-19T23:48:28.310Z,16.20
2019-05-19T23:51:05.467Z,15.57
2019-05-19T23:53:42.626Z,14.53
2019-05-19T23:56:19.777Z,16.20
2019-05-19T23:58:56.865Z,17.83
